Time;durP1;ratioP1;P1;durP2;ratioP2;P2;SDS_P1;SDS_P2;PMS_P1;PMS_P2;Temp;Humidity;BMP_temperature;BMP_pressure;BME280_temperature;BME280_humidity;BME280_pressure;Samples;Min_cycle;Max_cycle;Signal;HPM_P1;HPM_P2
2022/10/29 00:01:42;;;;;;;54.28;19.25;;;358.70;2329.60;;;;;;5092737;28;20028;-74
2022/10/29 00:04:08;;;;;;;31.27;17.75;;;358.80;2329.60;;;;;;5096024;28;20024;-74
2022/10/29 00:06:34;;;;;;;57.60;21.10;;;358.80;2329.60;;;;;;5092648;28;20113;-75
2022/10/29 00:08:59;;;;;;;40.28;19.27;;;358.80;2329.60;;;;;;5093265;28;20012;-75
2022/10/29 00:11:25;;;;;;;59.63;21.38;;;358.80;2329.60;;;;;;5092447;28;20051;-75
2022/10/29 00:13:59;;;;;;;32.75;19.42;;;358.80;2329.60;;;;;;5107153;28;20106;-74
2022/10/29 00:16:28;;;;;;;68.65;19.92;;;358.80;2329.60;;;;;;5092989;28;20350;-75
2022/10/29 00:18:55;;;;;;;42.97;20.17;;;358.80;2329.60;;;;;;5092718;28;20024;-75
2022/10/29 00:21:23;;;;;;;32.33;18.77;;;358.80;2329.60;;;;;;5092850;28;20028;-75
2022/10/29 00:23:49;;;;;;;54.70;19.77;;;358.80;2329.60;;;;;;5092464;28;20020;-74
2022/10/29 00:26:17;;;;;;;95.55;21.08;;;358.80;2329.60;;;;;;5092893;28;20119;-79
2022/10/29 00:28:43;;;;;;;39.75;18.95;;;358.80;2329.60;;;;;;5091301;28;20027;-75
2022/10/29 00:31:13;;;;;;;41.63;18.85;;;358.80;2329.60;;;;;;5092486;28;20035;-79
2022/10/29 00:33:38;;;;;;;27.13;17.88;;;358.80;2329.60;;;;;;5091676;28;20028;-74
2022/10/29 00:36:09;;;;;;;45.75;18.80;;;358.70;2329.60;;;;;;5092420;28;20020;-80
2022/10/29 00:38:35;;;;;;;70.25;21.52;;;358.80;2329.60;;;;;;5090940;28;20035;-75
2022/10/29 00:41:03;;;;;;;61.25;18.92;;;358.70;2329.60;;;;;;5132872;27;20430;-74
2022/10/29 00:43:32;;;;;;;46.00;18.88;;;358.70;2329.60;;;;;;5092022;28;20020;-74
2022/10/29 00:46:03;;;;;;;50.35;18.63;;;358.80;2329.60;;;;;;5091456;28;20027;-81
2022/10/29 00:48:32;;;;;;;99.03;21.23;;;358.80;2329.60;;;;;;5091570;28;20020;-74
2022/10/29 00:51:02;;;;;;;93.50;19.73;;;358.70;2329.60;;;;;;5133235;27;20027;-79
2022/10/29 00:53:32;;;;;;;35.88;17.23;;;358.70;2329.60;;;;;;5098699;28;20020;-78
2022/10/29 00:55:58;;;;;;;43.95;18.58;;;358.70;2329.60;;;;;;5101838;28;20020;-76
2022/10/29 00:58:24;;;;;;;33.95;18.40;;;358.80;2329.60;;;;;;5101395;28;20487;-75
2022/10/29 01:00:50;;;;;;;35.35;17.52;;;358.80;2329.60;;;;;;5108555;28;20036;-80
2022/10/29 01:03:16;;;;;;;69.95;20.23;;;358.80;2329.60;;;;;;5094136;28;20529;-74
2022/10/29 01:05:43;;;;;;;67.32;19.20;;;358.70;2329.60;;;;;;5091683;28;20030;-79
2022/10/29 01:08:10;;;;;;;79.72;19.17;;;358.70;2329.60;;;;;;5091207;28;20070;-74
2022/10/29 01:10:48;;;;;;;68.80;16.92;;;358.60;2329.60;;;;;;5092616;28;20508;-74
2022/10/29 01:13:41;;;;;;;53.17;13.13;;;358.60;2329.60;;;;;;5090212;28;20032;-74
2022/10/29 01:16:17;;;;;;;66.53;13.60;;;358.50;2329.60;;;;;;5094174;28;20028;-77
2022/10/29 01:19:34;;;;;;;18.27;13.77;;;358.50;2329.60;;;;;;5131535;27;20038;-75
2022/10/29 01:21:59;;;;;;;68.93;16.98;;;358.50;2329.60;;;;;;5070990;28;20079;-74
2022/10/29 01:24:33;;;;;;;32.50;15.75;;;358.40;2329.60;;;;;;5071494;28;20513;-74
2022/10/29 01:27:08;;;;;;;37.83;15.70;;;358.40;2329.60;;;;;;5048849;28;20120;-80
2022/10/29 01:29:40;;;;;;;41.42;14.93;;;358.50;2329.60;;;;;;5048741;28;20029;-74
2022/10/29 01:32:15;;;;;;;33.65;16.67;;;358.50;2329.60;;;;;;5047285;28;20070;-74
2022/10/29 01:34:52;;;;;;;70.90;17.80;;;358.50;2329.60;;;;;;5052792;28;20521;-77
2022/10/29 01:37:39;;;;;;;65.68;17.27;;;358.50;2329.60;;;;;;5054073;28;20029;-74
2022/10/29 01:40:36;;;;;;;35.53;18.00;;;358.50;2329.60;;;;;;5048868;28;20033;-76
2022/10/29 01:43:12;;;;;;;41.15;13.00;;;358.50;2329.60;;;;;;5048916;28;20080;-76
2022/10/29 01:45:48;;;;;;;38.75;17.27;;;358.50;2329.60;;;;;;5050580;28;20021;-74
2022/10/29 01:48:18;;;;;;;50.70;15.77;;;358.50;2329.60;;;;;;5054606;28;20021;-75
2022/10/29 01:50:49;;;;;;;25.58;15.23;;;359.00;2329.60;;;;;;5047189;28;20029;-76
2022/10/29 01:53:16;;;;;;;62.78;17.20;;;358.50;2329.60;;;;;;5048594;28;20025;-74
2022/10/29 01:55:42;;;;;;;82.38;17.83;;;358.40;2329.60;;;;;;5046677;28;20102;-79
2022/10/29 01:58:09;;;;;;;31.08;16.25;;;358.40;2329.60;;;;;;5089200;28;20035;-78
2022/10/29 02:01:00;;;;;;;32.83;15.85;;;333.70;2329.60;;;;;;5096763;28;20102;-78
2022/10/29 02:04:02;;;;;;;104.63;17.38;;;358.40;2022.40;;;;;;5092339;28;20089;-74
2022/10/29 02:06:46;;;;;;;31.00;15.65;;;358.40;2329.60;;;;;;5092670;28;20027;-75
2022/10/29 02:09:12;;;;;;;61.75;16.20;;;358.40;2329.60;;;;;;5101429;28;20020;-74
2022/10/29 02:11:58;;;;;;;45.90;14.65;;;358.40;2329.60;;;;;;5097199;28;20052;-75
2022/10/29 02:14:34;;;;;;;19.67;13.15;;;358.50;2329.60;;;;;;5095403;28;20020;-76
2022/10/29 02:17:02;;;;;;;29.63;13.45;;;358.50;2329.60;;;;;;5094831;28;20028;-77
2022/10/29 02:19:32;;;;;;;20.98;11.60;;;358.50;2329.60;;;;;;5102319;28;20024;-77
2022/10/29 02:21:58;;;;;;;46.35;13.77;;;358.50;2329.60;;;;;;5133055;27;20455;-76
2022/10/29 02:24:24;;;;;;;41.55;14.70;;;358.40;2329.60;;;;;;5100453;28;20095;-76
2022/10/29 02:26:51;;;;;;;24.70;12.93;;;333.70;2329.60;;;;;;5135785;27;20492;-77
2022/10/29 02:29:17;;;;;;;38.72;13.48;;;358.50;2329.60;;;;;;5094391;28;20095;-76
2022/10/29 02:31:42;;;;;;;20.45;12.02;;;333.70;2329.60;;;;;;5135816;27;20515;-75
2022/10/29 02:34:08;;;;;;;61.03;14.27;;;358.40;2329.60;;;;;;5095972;28;20020;-77
2022/10/29 02:36:34;;;;;;;25.23;12.77;;;358.40;2329.60;;;;;;5137518;27;20039;-77
2022/10/29 02:38:59;;;;;;;38.97;12.98;;;358.40;2329.60;;;;;;5097461;28;20430;-76
2022/10/29 02:41:25;;;;;;;49.78;14.65;;;358.50;2329.60;;;;;;5093959;28;20043;-77
2022/10/29 02:43:51;;;;;;;52.03;14.75;;;358.40;2329.60;;;;;;5098768;28;20401;-80
2022/10/29 02:46:19;;;;;;;23.23;13.30;;;333.70;2329.60;;;;;;5095587;28;20035;-77
2022/10/29 02:48:45;;;;;;;22.85;13.85;;;358.40;2329.60;;;;;;5099532;28;20024;-76
2022/10/29 02:51:11;;;;;;;60.67;15.75;;;358.40;2329.60;;;;;;5138441;27;20026;-76
2022/10/29 02:53:37;;;;;;;68.45;16.33;;;358.40;2329.60;;;;;;5132414;27;20028;-77
2022/10/29 02:56:04;;;;;;;37.22;14.82;;;358.40;2329.60;;;;;;5092826;28;20024;-77
2022/10/29 02:58:30;;;;;;;87.22;15.60;;;333.70;2329.60;;;;;;5138290;27;20053;-78
2022/10/29 03:00:55;;;;;;;23.38;13.70;;;333.70;2329.60;;;;;;5132082;27;20042;-76
2022/10/29 03:03:21;;;;;;;31.58;15.00;;;358.40;2329.60;;;;;;5096548;28;20020;-75
2022/10/29 03:05:47;;;;;;;73.00;14.10;;;358.40;2329.60;;;;;;5101078;28;20768;-78
2022/10/29 03:08:13;;;;;;;31.60;14.13;;;358.40;2329.60;;;;;;5129625;27;20067;-77
2022/10/29 03:10:39;;;;;;;38.15;15.68;;;333.70;2329.60;;;;;;5095109;28;20040;-78
2022/10/29 03:13:05;;;;;;;71.50;16.98;;;358.40;2329.60;;;;;;5136482;27;20541;-76
2022/10/29 03:15:30;;;;;;;54.97;15.00;;;333.70;2329.60;;;;;;5131983;27;20023;-78
2022/10/29 03:17:56;;;;;;;24.60;13.02;;;358.40;2329.60;;;;;;5135008;27;20053;-77
2022/10/29 03:20:22;;;;;;;20.33;12.43;;;358.40;2329.60;;;;;;5100310;28;20069;-78
2022/10/29 03:22:47;;;;;;;31.95;13.50;;;358.50;2329.60;;;;;;5102934;28;20028;-77
2022/10/29 03:25:13;;;;;;;36.92;14.00;;;358.40;2329.60;;;;;;5101412;28;20023;-77
2022/10/29 03:27:43;;;;;;;54.47;15.50;;;358.40;2329.60;;;;;;5101064;28;20536;-79
2022/10/29 03:30:13;;;;;;;29.65;11.95;;;358.40;2329.60;;;;;;5095899;28;20016;-75
2022/10/29 03:32:43;;;;;;;28.92;13.45;;;358.40;2329.60;;;;;;5140102;27;20126;-78
2022/10/29 03:35:11;;;;;;;21.17;12.88;;;333.70;2329.60;;;;;;5096235;28;20494;-77
2022/10/29 03:37:36;;;;;;;34.20;13.07;;;333.70;2329.60;;;;;;5095148;28;20019;-79
2022/10/29 03:40:03;;;;;;;57.20;15.07;;;333.70;2329.60;;;;;;5094723;28;20065;-77
2022/10/29 03:42:32;;;;;;;76.20;15.02;;;333.70;2329.60;;;;;;5094445;28;20031;-79
2022/10/29 03:44:59;;;;;;;32.97;13.50;;;333.70;2329.60;;;;;;5094557;28;20386;-79
2022/10/29 03:47:25;;;;;;;34.22;13.90;;;333.70;2329.60;;;;;;5091993;28;20025;-77
2022/10/29 03:49:51;;;;;;;62.15;14.40;;;333.60;2329.60;;;;;;5095625;28;20011;-77
2022/10/29 03:52:16;;;;;;;41.92;14.20;;;333.60;2329.60;;;;;;5093894;28;20469;-77
2022/10/29 03:54:42;;;;;;;31.10;13.40;;;333.60;2329.60;;;;;;5097803;27;20047;-77
2022/10/29 03:57:08;;;;;;;67.45;14.98;;;333.60;2329.60;;;;;;5097034;28;20020;-77
2022/10/29 03:59:34;;;;;;;24.38;11.55;;;333.50;2329.60;;;;;;5100974;28;20077;-78
2022/10/29 04:01:59;;;;;;;38.03;13.48;;;333.70;2329.60;;;;;;5131232;27;20051;-77
2022/10/29 04:04:25;;;;;;;21.90;12.23;;;333.60;2329.60;;;;;;5139538;27;20044;-81
2022/10/29 04:06:51;;;;;;;78.75;15.25;;;333.60;2329.60;;;;;;5135489;27;20032;-79
2022/10/29 04:09:16;;;;;;;30.50;13.43;;;333.50;2329.60;;;;;;5101064;28;20092;-81
2022/10/29 04:11:42;;;;;;;44.70;12.02;;;333.40;2329.60;;;;;;5106332;27;20401;-82
2022/10/29 04:14:08;;;;;;;56.63;13.88;;;333.50;2329.60;;;;;;5102243;28;20040;-79
2022/10/29 04:16:33;;;;;;;35.92;12.85;;;333.50;2329.60;;;;;;5135382;27;20020;-79
2022/10/29 04:18:59;;;;;;;22.25;12.10;;;333.50;2329.60;;;;;;5106797;28;20036;-79
2022/10/29 04:21:25;;;;;;;56.28;12.82;;;333.50;2329.60;;;;;;5111643;28;20059;-81
2022/10/29 04:23:50;;;;;;;32.65;14.35;;;333.60;2329.60;;;;;;5100971;28;20031;-81
2022/10/29 04:26:16;;;;;;;34.65;14.82;;;333.60;2329.60;;;;;;5101760;28;20024;-79
2022/10/29 04:28:43;;;;;;;29.10;14.10;;;333.60;2329.60;;;;;;5105766;28;20035;-79
2022/10/29 04:31:11;;;;;;;35.40;12.25;;;333.70;2329.60;;;;;;5099124;28;20024;-79
2022/10/29 04:33:37;;;;;;;30.98;13.32;;;333.60;2329.60;;;;;;5134255;27;20069;-79
2022/10/29 04:36:03;;;;;;;31.90;12.80;;;333.60;2329.60;;;;;;5133565;27;20528;-78
2022/10/29 04:38:29;;;;;;;30.13;12.25;;;333.60;2329.60;;;;;;5136194;27;20030;-81
2022/10/29 04:40:59;;;;;;;44.45;14.65;;;333.50;2329.60;;;;;;5140788;27;20042;-77
2022/10/29 04:43:26;;;;;;;59.80;12.57;;;333.40;2329.60;;;;;;5105538;28;20397;-76
2022/10/29 04:45:53;;;;;;;27.92;11.50;;;333.50;2329.60;;;;;;5136825;27;20022;-79
2022/10/29 04:48:19;;;;;;;76.22;12.50;;;333.50;2329.60;;;;;;5135465;27;20026;-78
2022/10/29 04:50:45;;;;;;;15.35;10.48;;;333.40;2329.60;;;;;;5100840;28;20028;-78
2022/10/29 04:53:11;;;;;;;42.65;12.15;;;333.40;2329.60;;;;;;5097857;28;20070;-78
2022/10/29 04:55:38;;;;;;;34.85;11.95;;;333.40;2329.60;;;;;;5138258;27;20030;-81
2022/10/29 04:58:05;;;;;;;43.65;11.27;;;333.40;2329.60;;;;;;5109457;28;20027;-78
2022/10/29 05:00:31;;;;;;;38.17;11.23;;;333.20;2329.60;;;;;;5111190;28;20024;-78
2022/10/29 05:02:57;;;;;;;74.55;12.18;;;332.90;2329.60;;;;;;5107174;28;20035;-82
2022/10/29 05:05:23;;;;;;;22.02;9.80;;;333.20;2329.60;;;;;;5136498;27;20015;-77
2022/10/29 05:07:54;;;;;;;75.35;13.65;;;333.30;2329.60;;;;;;5094431;28;20500;-81
2022/10/29 05:10:20;;;;;;;88.20;13.07;;;333.20;2329.60;;;;;;5098347;28;20170;-78
2022/10/29 05:12:46;;;;;;;18.88;10.02;;;333.20;2329.60;;;;;;5099935;28;20495;-77
2022/10/29 05:15:11;;;;;;;33.40;12.95;;;333.20;2329.60;;;;;;5130367;27;20031;-78
2022/10/29 05:17:37;;;;;;;54.55;13.18;;;333.30;2329.60;;;;;;5096289;28;20032;-75
2022/10/29 05:20:04;;;;;;;13.15;10.60;;;333.30;2329.60;;;;;;5101537;28;20115;-77
2022/10/29 05:22:29;;;;;;;26.45;12.10;;;333.30;2329.60;;;;;;5091339;28;20035;-79
2022/10/29 05:24:55;;;;;;;66.07;13.55;;;333.30;2329.60;;;;;;5133122;27;20023;-76
2022/10/29 05:27:21;;;;;;;50.13;12.55;;;333.30;2329.60;;;;;;5132884;27;20028;-77
2022/10/29 05:29:46;;;;;;;30.17;10.57;;;333.30;2329.60;;;;;;5135543;27;20024;-77
2022/10/29 05:32:12;;;;;;;26.75;11.32;;;333.30;2329.60;;;;;;5096247;28;20032;-75
2022/10/29 05:34:38;;;;;;;14.80;9.90;;;333.30;2329.60;;;;;;5095275;28;20032;-77
2022/10/29 05:37:03;;;;;;;22.27;11.35;;;333.40;2329.60;;;;;;5106679;28;20530;-78
2022/10/29 05:39:29;;;;;;;41.28;12.50;;;333.40;2329.60;;;;;;5091024;28;20047;-77
2022/10/29 05:41:55;;;;;;;45.75;14.45;;;333.40;2329.60;;;;;;5139107;27;20052;-77
2022/10/29 05:44:21;;;;;;;32.50;12.77;;;333.40;2329.60;;;;;;5114137;28;20035;-77
2022/10/29 05:46:49;;;;;;;40.70;16.55;;;333.40;2329.60;;;;;;5100690;28;20491;-79
2022/10/29 05:49:15;;;;;;;38.60;16.75;;;333.40;2329.60;;;;;;5110565;28;20492;-76
2022/10/29 05:51:41;;;;;;;29.02;14.90;;;333.50;2329.60;;;;;;5098929;28;20028;-79
2022/10/29 05:54:07;;;;;;;43.63;14.18;;;333.50;2329.60;;;;;;5094182;28;20024;-75
2022/10/29 05:56:32;;;;;;;55.53;13.95;;;333.50;2329.60;;;;;;5095489;28;20024;-74
2022/10/29 05:58:58;;;;;;;60.90;13.82;;;333.50;2329.60;;;;;;5095419;28;20028;-75
2022/10/29 06:01:24;;;;;;;43.65;12.55;;;333.50;2329.60;;;;;;5095649;28;20028;-76
2022/10/29 06:03:49;;;;;;;18.45;11.52;;;333.40;2329.60;;;;;;5128144;27;20060;-75
2022/10/29 06:06:15;;;;;;;43.40;12.18;;;333.40;2329.60;;;;;;5094170;28;20040;-76
2022/10/29 06:08:41;;;;;;;20.48;11.20;;;333.30;2329.60;;;;;;5095162;28;20047;-74
2022/10/29 06:11:07;;;;;;;44.42;11.65;;;333.30;2329.60;;;;;;5095066;28;20079;-78
2022/10/29 06:13:32;;;;;;;23.85;11.07;;;333.30;2329.60;;;;;;5108120;28;20166;-77
2022/10/29 06:15:59;;;;;;;34.15;13.80;;;333.30;2329.60;;;;;;5128213;27;20111;-75
2022/10/29 06:18:28;;;;;;;35.90;11.35;;;333.30;2329.60;;;;;;5094216;28;20055;-76
2022/10/29 06:20:57;;;;;;;19.40;9.35;;;333.20;2329.60;;;;;;5095101;28;20370;-76
2022/10/29 06:23:22;;;;;;;48.20;10.55;;;333.20;2329.60;;;;;;5095145;28;20028;-79
2022/10/29 06:25:48;;;;;;;39.35;9.80;;;333.20;2329.60;;;;;;5110999;28;20040;-79
2022/10/29 06:28:15;;;;;;;45.65;10.88;;;333.20;2329.60;;;;;;5128266;27;20032;-77
2022/10/29 06:30:46;;;;;;;23.30;10.35;;;333.20;2329.60;;;;;;5113589;27;20470;-78
2022/10/29 06:33:12;;;;;;;25.88;11.32;;;333.20;2329.60;;;;;;5128537;27;20107;-79
2022/10/29 06:35:38;;;;;;;32.05;13.40;;;333.20;2329.60;;;;;;5093585;28;20202;-76
2022/10/29 06:38:04;;;;;;;62.10;15.98;;;333.10;2329.60;;;;;;5127645;27;20028;-76
2022/10/29 06:40:29;;;;;;;43.15;12.75;;;333.20;2329.60;;;;;;5127913;27;20035;-79
2022/10/29 06:43:06;;;;;;;20.83;12.85;;;333.10;2329.60;;;;;;5093534;28;20105;-80
2022/10/29 06:45:33;;;;;;;29.58;13.75;;;333.20;2329.60;;;;;;5095012;28;20024;-78
2022/10/29 06:48:00;;;;;;;36.67;12.45;;;333.20;2329.60;;;;;;5127100;27;20032;-76
2022/10/29 06:50:26;;;;;;;38.63;13.77;;;333.10;2329.60;;;;;;5093647;28;20032;-74
2022/10/29 06:52:58;;;;;;;41.40;13.77;;;333.20;2329.60;;;;;;5127357;27;20024;-75
2022/10/29 06:55:25;;;;;;;56.92;13.45;;;333.30;2329.60;;;;;;5103335;28;20035;-76
2022/10/29 06:58:24;;;;;;;17.98;11.02;;;333.30;2329.60;;;;;;5100234;28;20027;-78
2022/10/29 07:00:49;;;;;;;48.10;13.23;;;333.30;2329.60;;;;;;5054482;28;20163;-78
2022/10/29 07:03:18;;;;;;;26.77;11.30;;;333.30;2329.60;;;;;;5071338;28;20449;-77
2022/10/29 07:05:44;;;;;;;29.08;11.63;;;333.30;2329.60;;;;;;5040396;28;20029;-78
2022/10/29 07:08:10;;;;;;;33.10;11.95;;;358.40;2329.60;;;;;;5068445;28;20127;-80
2022/10/29 07:10:36;;;;;;;42.55;13.38;;;333.40;2329.60;;;;;;5046219;28;20124;-77
2022/10/29 07:13:03;;;;;;;19.23;12.35;;;333.50;2329.60;;;;;;5062920;28;20059;-77
2022/10/29 07:15:29;;;;;;;38.95;13.68;;;333.50;2329.60;;;;;;5052296;28;20025;-78
2022/10/29 07:17:58;;;;;;;42.95;13.73;;;333.50;2329.60;;;;;;5060535;28;20032;-79
2022/10/29 07:20:25;;;;;;;24.33;15.43;;;333.50;2329.60;;;;;;5055138;28;20017;-80
2022/10/29 07:22:51;;;;;;;32.22;20.67;;;333.50;2329.60;;;;;;5059605;28;20098;-80
2022/10/29 07:25:17;;;;;;;50.65;14.40;;;333.50;2329.60;;;;;;5058738;28;20033;-77
2022/10/29 07:27:43;;;;;;;54.05;13.75;;;333.50;2329.60;;;;;;5070772;28;20077;-78
2022/10/29 07:30:09;;;;;;;73.28;16.58;;;333.40;2329.60;;;;;;5054465;28;20547;-79
2022/10/29 07:32:35;;;;;;;23.05;15.77;;;333.30;2329.60;;;;;;5054603;28;20025;-76
2022/10/29 07:35:00;;;;;;;45.80;15.32;;;333.40;2329.60;;;;;;5059947;28;20560;-78
2022/10/29 07:37:26;;;;;;;43.83;13.70;;;333.40;2329.60;;;;;;5103260;28;20385;-78
2022/10/29 07:39:52;;;;;;;34.08;16.48;;;333.30;2329.60;;;;;;5092479;28;20040;-77
2022/10/29 07:42:18;;;;;;;102.70;64.63;;;333.40;2329.60;;;;;;5113135;27;20449;-78
2022/10/29 07:44:44;;;;;;;65.90;30.80;;;333.60;2329.60;;;;;;5092172;28;20016;-77
2022/10/29 07:47:10;;;;;;;51.08;15.30;;;358.50;2329.60;;;;;;5126332;27;20036;-78
2022/10/29 07:49:35;;;;;;;34.42;13.50;;;333.70;2329.60;;;;;;5092050;28;20020;-78
2022/10/29 07:52:01;;;;;;;16.38;13.05;;;333.50;2329.60;;;;;;5093439;28;20031;-79
2022/10/29 07:54:27;;;;;;;17.65;13.48;;;333.60;2329.60;;;;;;5092291;28;20028;-78
2022/10/29 07:56:53;;;;;;;21.70;13.90;;;333.70;2329.60;;;;;;5126065;27;20439;-78
2022/10/29 07:59:19;;;;;;;22.17;12.98;;;333.70;2329.60;;;;;;5093214;28;20544;-77
2022/10/29 08:01:45;;;;;;;19.90;14.80;;;333.70;2329.60;;;;;;5120470;27;20033;-79
2022/10/29 08:04:12;;;;;;;22.63;14.48;;;333.70;2329.60;;;;;;5084701;28;20047;-78
2022/10/29 08:06:38;;;;;;;21.95;14.32;;;333.70;2329.60;;;;;;5125187;27;20031;-78
2022/10/29 08:09:04;;;;;;;47.80;15.05;;;333.70;2329.60;;;;;;5093207;28;20024;-78
2022/10/29 08:11:31;;;;;;;23.55;15.95;;;333.70;2329.60;;;;;;5092483;28;20059;-78
2022/10/29 08:13:57;;;;;;;20.63;14.32;;;333.70;2329.60;;;;;;5140623;27;20028;-76
2022/10/29 08:16:23;;;;;;;25.98;14.68;;;333.70;2329.60;;;;;;5091299;28;20027;-75
2022/10/29 08:18:49;;;;;;;48.58;15.93;;;358.40;2329.60;;;;;;5091469;28;20131;-74
2022/10/29 08:21:15;;;;;;;35.22;17.27;;;333.70;2329.60;;;;;;5125304;27;20126;-74
2022/10/29 08:23:41;;;;;;;62.47;17.85;;;333.50;2329.60;;;;;;5108282;28;20067;-76
2022/10/29 08:26:06;;;;;;;40.25;17.77;;;333.40;2329.60;;;;;;5108305;28;20508;-75
2022/10/29 08:28:32;;;;;;;33.70;17.70;;;333.40;2329.60;;;;;;5092541;28;20099;-75
2022/10/29 08:30:58;;;;;;;29.92;18.40;;;333.60;2329.60;;;;;;5111076;27;20126;-78
2022/10/29 08:33:24;;;;;;;22.05;15.02;;;333.70;2329.60;;;;;;5092645;28;20108;-75
2022/10/29 08:35:49;;;;;;;25.20;16.85;;;333.60;2329.60;;;;;;5092449;28;20355;-75
2022/10/29 08:38:15;;;;;;;69.18;16.23;;;333.70;2329.60;;;;;;5091096;28;20430;-78
2022/10/29 08:41:04;;;;;;;22.80;15.35;;;333.70;2329.60;;;;;;5125278;27;20409;-75
2022/10/29 08:43:47;;;;;;;24.27;15.38;;;358.50;2329.60;;;;;;5081497;28;20032;-75
2022/10/29 08:46:23;;;;;;;31.55;17.45;;;358.50;2329.60;;;;;;5091045;28;20031;-75
2022/10/29 08:48:57;;;;;;;27.92;15.90;;;358.40;2329.60;;;;;;5125187;27;20107;-77
2022/10/29 08:51:29;;;;;;;23.05;16.20;;;333.70;2329.60;;;;;;5092245;28;20023;-76
2022/10/29 08:53:57;;;;;;;26.50;16.17;;;358.50;2329.60;;;;;;5090946;28;20024;-75
2022/10/29 08:56:37;;;;;;;26.23;16.35;;;358.50;2329.60;;;;;;5125058;27;20039;-79
2022/10/29 08:59:12;;;;;;;35.00;16.42;;;358.50;2329.60;;;;;;5092413;28;20024;-76
2022/10/29 09:01:38;;;;;;;20.83;14.40;;;358.60;2329.60;;;;;;5091495;28;20034;-76
2022/10/29 09:04:17;;;;;;;20.20;14.40;;;358.40;2329.60;;;;;;5093115;28;20460;-76
2022/10/29 09:07:03;;;;;;;22.33;14.40;;;358.70;2329.60;;;;;;5092028;28;20020;-76
2022/10/29 09:09:53;;;;;;;21.52;12.43;;;358.80;2329.60;;;;;;5092701;28;20012;-79
2022/10/29 09:12:36;;;;;;;29.58;14.98;;;358.60;2329.60;;;;;;5089279;28;20054;-79
2022/10/29 09:15:19;;;;;;;26.85;14.65;;;358.60;2329.60;;;;;;5092400;28;20040;-75
2022/10/29 09:17:55;;;;;;;23.23;15.18;;;358.80;2329.60;;;;;;5080966;28;20052;-75
2022/10/29 09:20:46;;;;;;;21.73;15.52;;;358.80;2329.60;;;;;;5076234;28;20025;-76
2022/10/29 09:24:00;;;;;;;26.13;16.58;;;358.80;2329.60;;;;;;5093723;28;20047;-76
2022/10/29 09:26:41;;;;;;;27.58;15.93;;;358.80;2329.60;;;;;;5045473;28;20032;-75
2022/10/29 09:29:22;;;;;;;38.20;17.05;;;358.70;2329.60;;;;;;5061000;28;20091;-76
2022/10/29 09:32:30;;;;;;;31.33;21.60;;;358.80;2329.60;;;;;;5045968;28;20017;-75
2022/10/29 09:35:14;;;;;;;29.98;18.45;;;358.90;2329.60;;;;;;5022183;28;20212;-75
2022/10/29 09:37:52;;;;;;;25.80;17.98;;;358.90;2329.60;;;;;;5016380;28;20030;-79
2022/10/29 09:40:39;;;;;;;25.95;19.10;;;358.90;2329.60;;;;;;5019418;28;20094;-75
2022/10/29 09:43:30;;;;;;;27.05;18.45;;;359.00;2329.60;;;;;;5041558;28;20049;-77
2022/10/29 09:46:20;;;;;;;30.42;20.58;;;359.00;2329.60;;;;;;4997051;28;20042;-74
2022/10/29 09:49:16;;;;;;;30.83;20.38;;;359.20;2329.60;;;;;;5010542;28;20034;-75
2022/10/29 09:51:47;;;;;;;32.28;21.33;;;359.30;2329.60;;;;;;5000645;28;20109;-74
2022/10/29 09:54:13;;;;;;;28.38;19.98;;;384.30;2329.60;;;;;;4996020;28;20076;-76
2022/10/29 09:56:44;;;;;;;42.33;22.52;;;359.20;2329.60;;;;;;4995786;28;20034;-78
2022/10/29 09:59:38;;;;;;;30.48;22.40;;;359.20;2329.60;;;;;;4977089;28;20056;-75
2022/10/29 10:02:31;;;;;;;71.43;35.70;;;359.30;2329.60;;;;;;5005904;28;20046;-76
2022/10/29 10:05:04;;;;;;;40.20;24.05;;;359.30;2329.60;;;;;;4996963;28;20476;-76
2022/10/29 10:07:29;;;;;;;36.78;23.75;;;359.20;2329.60;;;;;;4997442;28;20076;-77
2022/10/29 10:09:58;;;;;;;29.35;21.70;;;359.00;2022.40;;;;;;5051331;28;20041;-74
2022/10/29 10:12:35;;;;;;;30.63;21.70;;;359.10;2329.60;;;;;;5040973;28;20071;-74
2022/10/29 10:15:05;;;;;;;37.88;23.55;;;359.20;2329.60;;;;;;5060531;28;20041;-74
2022/10/29 10:18:01;;;;;;;29.98;21.65;;;359.30;2329.60;;;;;;5035879;28;20029;-74
2022/10/29 10:20:43;;;;;;;34.65;22.45;;;359.20;2329.60;;;;;;5049794;28;20064;-74
2022/10/29 10:23:27;;;;;;;26.67;19.35;;;359.20;2329.60;;;;;;5075721;28;20367;-74
2022/10/29 10:25:55;;;;;;;35.10;23.88;;;384.00;2329.60;;;;;;5094755;28;20582;-75
2022/10/29 10:28:24;;;;;;;35.97;22.73;;;384.00;2329.60;;;;;;5094535;28;20386;-77
2022/10/29 10:31:13;;;;;;;31.42;21.10;;;384.00;2329.60;;;;;;5127363;27;20032;-75
2022/10/29 10:33:51;;;;;;;37.75;24.25;;;384.10;2329.60;;;;;;5127986;27;20032;-75
2022/10/29 10:36:19;;;;;;;35.17;23.95;;;384.20;2329.60;;;;;;5100041;28;20012;-76
2022/10/29 10:38:48;;;;;;;32.78;21.80;;;384.20;2329.60;;;;;;5103019;28;20123;-75
2022/10/29 10:41:20;;;;;;;29.27;21.50;;;384.20;2329.60;;;;;;5094115;28;20416;-74
2022/10/29 10:43:46;;;;;;;33.92;24.50;;;384.20;2329.60;;;;;;5094571;28;20485;-75
2022/10/29 10:46:21;;;;;;;33.28;25.13;;;384.10;2329.60;;;;;;5094653;28;20135;-74
2022/10/29 10:48:57;;;;;;;36.40;24.10;;;384.20;2329.60;;;;;;5094458;28;20031;-74
2022/10/29 10:51:27;;;;;;;31.23;23.33;;;384.30;2329.60;;;;;;5094574;28;20072;-78
2022/10/29 10:53:53;;;;;;;35.50;25.55;;;384.20;2329.60;;;;;;5094402;28;20023;-74
2022/10/29 10:56:21;;;;;;;41.05;27.77;;;384.10;2329.60;;;;;;5094231;28;20024;-75
2022/10/29 10:58:55;;;;;;;35.38;25.08;;;384.20;2329.60;;;;;;5094426;28;20020;-75
2022/10/29 11:01:32;;;;;;;32.10;24.60;;;384.30;2329.60;;;;;;5092721;28;20470;-74
2022/10/29 11:04:11;;;;;;;34.55;21.98;;;384.40;2329.60;;;;;;5093301;28;20043;-75
2022/10/29 11:06:43;;;;;;;32.47;23.08;;;384.40;2329.60;;;;;;5092728;28;20158;-75
2022/10/29 11:09:27;;;;;;;34.20;24.13;;;384.50;2329.60;;;;;;5094183;28;20111;-75
2022/10/29 11:12:37;;;;;;;32.38;23.45;;;384.50;2329.60;;;;;;5093211;28;20043;-74
2022/10/29 11:15:14;;;;;;;36.35;25.23;;;384.60;2329.60;;;;;;5067661;28;20033;-76
2022/10/29 11:17:53;;;;;;;33.13;25.42;;;384.50;2329.60;;;;;;5048293;28;20025;-76
2022/10/29 11:20:27;;;;;;;33.22;24.35;;;384.50;2329.60;;;;;;5050842;28;20047;-74
2022/10/29 11:23:12;;;;;;;35.20;26.15;;;384.40;2329.60;;;;;;5033401;28;20033;-76
2022/10/29 11:25:44;;;;;;;33.13;24.98;;;384.40;2329.60;;;;;;5034436;28;20033;-77
2022/10/29 11:28:29;;;;;;;41.97;27.63;;;384.40;2329.60;;;;;;5034166;28;20037;-76
2022/10/29 11:31:04;;;;;;;38.60;27.63;;;384.40;2329.60;;;;;;5031571;28;20041;-76
2022/10/29 11:33:48;;;;;;;34.90;26.75;;;384.40;2329.60;;;;;;5063563;28;20470;-76
2022/10/29 11:36:24;;;;;;;36.08;27.58;;;384.50;2329.60;;;;;;5067367;28;20075;-75
2022/10/29 11:38:56;;;;;;;39.33;26.83;;;384.60;2329.60;;;;;;5034423;28;20115;-80
2022/10/29 11:41:25;;;;;;;36.35;27.98;;;384.70;2329.60;;;;;;5033120;28;20164;-79
2022/10/29 11:43:51;;;;;;;38.22;27.73;;;384.70;2329.60;;;;;;5050579;28;20502;-78
2022/10/29 11:46:19;;;;;;;36.13;27.92;;;384.90;2329.60;;;;;;5051242;28;20104;-79
2022/10/29 11:49:17;;;;;;;39.92;29.52;;;384.90;2329.60;;;;;;5051167;28;20032;-77
2022/10/29 11:51:51;;;;;;;;;;;384.90;2329.60;;;;;;5088854;28;20028;-79
2022/10/29 11:54:29;;;;;;;39.42;30.38;;;384.90;2329.60;;;;;;5096739;28;19915;-79
2022/10/29 11:57:09;;;;;;;43.50;31.25;;;384.90;2329.60;;;;;;5100603;28;20706;-79
2022/10/29 12:00:02;;;;;;;51.05;38.10;;;384.80;2329.60;;;;;;5103820;28;20089;-79
2022/10/29 12:02:54;;;;;;;46.15;32.75;;;384.90;2329.60;;;;;;5105418;28;20046;-80
2022/10/29 12:05:52;;;;;;;45.05;33.85;;;384.90;2329.60;;;;;;5132244;27;20027;-81
2022/10/29 12:08:33;;;;;;;42.65;34.72;;;384.90;2329.60;;;;;;5100522;28;20031;-79
2022/10/29 12:11:32;;;;;;;46.97;33.30;;;409.60;2355.20;;;;;;5094224;28;20036;-80
2022/10/29 12:14:21;;;;;;;46.45;33.10;;;409.60;2355.20;;;;;;5092096;28;20030;-80
2022/10/29 12:17:00;;;;;;;43.42;32.65;;;409.70;2355.20;;;;;;5126187;27;20020;-79
2022/10/29 12:19:49;;;;;;;45.55;33.78;;;409.60;2355.20;;;;;;5126201;27;20404;-79